createdAt,value
2023-01-22T00:00:01.901Z,88.75
2023-01-22T00:01:33.775Z,89.06
2023-01-22T00:03:05.592Z,88.81
2023-01-22T00:04:37.738Z,88.73
2023-01-22T00:06:10.119Z,88.83
2023-01-22T00:07:42.436Z,88.85
2023-01-22T00:09:16.041Z,88.82
2023-01-22T00:10:51.474Z,88.85
2023-01-22T00:12:23.301Z,88.96
2023-01-22T00:13:55.115Z,88.73
2023-01-22T00:15:26.907Z,88.76
2023-01-22T00:16:58.893Z,88.71
2023-01-22T00:18:30.711Z,88.99
2023-01-22T00:20:02.625Z,89.04
2023-01-22T00:21:34.598Z,88.99
2023-01-22T00:23:06.657Z,88.90
2023-01-22T00:24:40.242Z,88.48
2023-01-22T00:26:13.569Z,88.67
2023-01-22T00:27:45.603Z,88.81
2023-01-22T00:29:17.688Z,88.76
2023-01-22T00:30:56.880Z,88.90
2023-01-22T00:32:28.842Z,88.66
2023-01-22T00:34:00.767Z,88.26
2023-01-22T00:35:34.020Z,88.28
2023-01-22T00:37:05.912Z,88.50
2023-01-22T00:38:37.847Z,88.42
2023-01-22T00:40:10.137Z,88.69
2023-01-22T00:41:42.961Z,88.78
2023-01-22T00:43:15.069Z,88.81
2023-01-22T00:44:47.025Z,89.10
2023-01-22T00:46:18.935Z,89.13
2023-01-22T00:47:51.789Z,89.24
2023-01-22T00:49:23.740Z,89.24
2023-01-22T00:50:55.618Z,89.10
2023-01-22T00:52:27.542Z,88.67
2023-01-22T00:53:59.579Z,88.48
2023-01-22T00:55:31.566Z,88.75
2023-01-22T00:57:03.501Z,88.54
2023-01-22T00:58:35.681Z,88.52
2023-01-22T01:00:08.023Z,88.36
2023-01-22T01:01:40.058Z,88.47
2023-01-22T01:03:27.325Z,88.64
2023-01-22T01:04:59.295Z,88.77
2023-01-22T01:06:31.235Z,88.79
2023-01-22T01:08:03.100Z,88.89
2023-01-22T01:09:34.933Z,88.71
2023-01-22T01:11:07.893Z,88.58
2023-01-22T01:12:39.757Z,88.08
2023-01-22T01:14:11.582Z,88.04
2023-01-22T01:15:43.681Z,88.06
2023-01-22T01:17:15.622Z,87.80
2023-01-22T01:18:47.531Z,87.99
2023-01-22T01:20:19.769Z,87.81
2023-01-22T01:21:51.757Z,87.50
2023-01-22T01:23:28.743Z,87.47
2023-01-22T01:25:00.665Z,87.44
2023-01-22T01:26:33.871Z,87.63
2023-01-22T01:28:05.674Z,87.90
2023-01-22T01:29:37.495Z,88.28
2023-01-22T01:31:11.173Z,88.47
2023-01-22T01:32:43.091Z,88.61
2023-01-22T01:34:14.915Z,88.75
2023-01-22T01:35:46.756Z,88.67
2023-01-22T01:37:18.674Z,88.91
2023-01-22T01:38:51.677Z,88.74
2023-01-22T01:40:23.496Z,88.42
2023-01-22T01:41:55.388Z,88.32
2023-01-22T01:43:27.286Z,88.35
2023-01-22T01:45:17.693Z,87.98
2023-01-22T01:46:52.340Z,87.95
2023-01-22T01:48:29.465Z,87.97
2023-01-22T01:50:01.407Z,87.99
2023-01-22T01:51:33.979Z,88.10
2023-01-22T01:53:05.865Z,88.47
2023-01-22T01:54:37.710Z,88.40
2023-01-22T01:56:10.957Z,88.55
2023-01-22T01:57:42.770Z,88.34
2023-01-22T01:59:15.176Z,88.50
2023-01-22T02:00:47.097Z,88.63
2023-01-22T02:02:20.875Z,88.73
2023-01-22T02:03:52.895Z,88.89
2023-01-22T02:05:24.704Z,88.84
2023-01-22T02:06:56.533Z,89.16
2023-01-22T02:10:05.377Z,89.13
2023-01-22T02:11:37.236Z,89.07
2023-01-22T02:13:12.938Z,89.10
2023-01-22T02:14:46.199Z,88.99
2023-01-22T02:16:17.998Z,88.83
2023-01-22T02:17:49.830Z,88.80
2023-01-22T02:19:21.659Z,88.90
2023-01-22T02:20:54.445Z,89.13
2023-01-22T02:22:28.172Z,89.14
2023-01-22T02:24:00.149Z,89.46
2023-01-22T02:25:32.282Z,89.28
2023-01-22T02:27:04.391Z,89.60
2023-01-22T02:28:36.337Z,89.68
2023-01-22T02:30:08.452Z,89.79
2023-01-22T02:31:40.840Z,89.86
2023-01-22T02:33:12.689Z,89.92
2023-01-22T02:34:44.504Z,89.76
2023-01-22T02:36:16.609Z,89.74
2023-01-22T02:37:48.478Z,89.79
2023-01-22T02:39:21.380Z,89.76
2023-01-22T02:40:53.558Z,89.81
2023-01-22T02:42:26.634Z,89.96
2023-01-22T02:43:58.517Z,89.89
2023-01-22T02:45:30.415Z,90.02
2023-01-22T02:47:02.290Z,89.95
2023-01-22T02:48:34.214Z,89.76
2023-01-22T02:50:06.282Z,89.78
2023-01-22T02:51:38.148Z,89.87
2023-01-22T02:53:09.974Z,90.07
2023-01-22T02:54:41.870Z,90.37
2023-01-22T02:56:13.727Z,90.42
2023-01-22T02:57:45.597Z,90.28
2023-01-22T02:59:17.443Z,90.17
2023-01-22T03:00:49.256Z,90.21
2023-01-22T03:02:22.115Z,90.37
2023-01-22T03:03:58.102Z,90.36
2023-01-22T03:05:31.453Z,90.26
2023-01-22T03:07:03.259Z,90.26
2023-01-22T03:08:35.085Z,90.35
2023-01-22T03:10:07.101Z,90.37
2023-01-22T03:11:39.584Z,90.21
2023-01-22T03:13:29.822Z,90.27
2023-01-22T03:15:20.256Z,90.04
2023-01-22T03:17:10.512Z,90.14
2023-01-22T03:20:35.066Z,90.05
2023-01-22T03:22:06.889Z,89.99
2023-01-22T03:23:38.920Z,89.92
2023-01-22T03:25:10.838Z,89.76
2023-01-22T03:26:42.655Z,89.76
2023-01-22T03:28:19.391Z,89.54
2023-01-22T03:29:51.479Z,89.71
2023-01-22T03:31:23.408Z,89.66
2023-01-22T03:32:55.767Z,89.70
2023-01-22T03:34:27.839Z,89.67
2023-01-22T03:36:01.185Z,89.38
2023-01-22T03:37:33.201Z,89.16
2023-01-22T03:39:05.301Z,89.19
2023-01-22T03:40:37.104Z,89.21
2023-01-22T03:42:08.984Z,89.25
2023-01-22T03:43:41.018Z,88.94
2023-01-22T03:45:12.852Z,89.00
2023-01-22T03:46:44.735Z,88.68
2023-01-22T03:48:16.609Z,88.50
2023-01-22T03:49:48.499Z,88.51
2023-01-22T03:51:20.560Z,88.58
2023-01-22T03:52:52.417Z,88.52
2023-01-22T03:54:24.310Z,88.48
2023-01-22T03:55:59.770Z,88.41
2023-01-22T03:57:31.546Z,88.78
2023-01-22T03:59:03.444Z,88.78
2023-01-22T04:00:35.234Z,89.01
2023-01-22T04:02:07.228Z,89.00
2023-01-22T04:03:39.402Z,89.31
2023-01-22T04:05:11.240Z,89.09
2023-01-22T04:06:43.016Z,89.25
2023-01-22T04:08:15.198Z,89.23
2023-01-22T04:09:47.054Z,89.18
2023-01-22T04:11:19.056Z,89.30
2023-01-22T04:12:50.907Z,89.27
2023-01-22T04:14:22.740Z,89.33
2023-01-22T04:15:54.644Z,89.09
2023-01-22T04:17:26.865Z,88.88
2023-01-22T04:18:58.856Z,88.63
2023-01-22T04:20:30.798Z,88.64
2023-01-22T04:22:02.667Z,88.63
2023-01-22T04:23:34.530Z,88.81
2023-01-22T04:25:06.683Z,88.92
2023-01-22T04:26:38.465Z,88.92
2023-01-22T04:28:11.227Z,88.91
2023-01-22T04:29:43.028Z,88.97
2023-01-22T04:31:14.987Z,89.25
2023-01-22T04:32:47.085Z,89.32
2023-01-22T04:34:19.419Z,89.07
2023-01-22T04:35:51.665Z,88.77
2023-01-22T04:37:23.506Z,88.65
2023-01-22T04:38:55.350Z,88.70
2023-01-22T04:40:27.342Z,88.87
2023-01-22T04:41:59.164Z,89.03
2023-01-22T04:43:30.950Z,88.87
2023-01-22T04:45:03.203Z,88.99
2023-01-22T04:46:35.044Z,88.91
2023-01-22T04:48:08.683Z,88.99
2023-01-22T04:49:40.466Z,88.74
2023-01-22T04:51:12.511Z,88.82
2023-01-22T04:52:44.449Z,88.93
2023-01-22T04:54:16.277Z,88.66
2023-01-22T04:55:48.040Z,88.85
2023-01-22T04:57:19.843Z,88.72
2023-01-22T04:58:51.859Z,88.80
2023-01-22T05:00:24.049Z,89.02
2023-01-22T05:01:55.889Z,88.72
2023-01-22T05:03:27.732Z,88.45
2023-01-22T05:04:59.571Z,88.33
2023-01-22T05:06:31.670Z,88.36
2023-01-22T05:08:03.478Z,88.46
2023-01-22T05:09:35.465Z,88.35
2023-01-22T05:11:07.321Z,88.63
2023-01-22T05:12:39.178Z,88.29
2023-01-22T05:14:11.025Z,88.16
2023-01-22T05:15:42.890Z,88.26
2023-01-22T05:17:14.773Z,88.45
2023-01-22T05:18:46.600Z,88.35
2023-01-22T05:20:18.914Z,88.31
2023-01-22T05:21:50.869Z,88.30
2023-01-22T05:23:22.632Z,88.27
2023-01-22T05:24:54.465Z,88.07
2023-01-22T05:26:26.339Z,88.05
2023-01-22T05:27:58.116Z,88.27
2023-01-22T05:29:29.998Z,88.27
2023-01-22T05:31:01.920Z,88.18
2023-01-22T05:32:33.815Z,87.78
2023-01-22T05:34:05.731Z,87.60
2023-01-22T05:35:37.503Z,87.46
2023-01-22T05:37:09.303Z,88.01
2023-01-22T05:38:41.204Z,87.94
2023-01-22T05:40:13.345Z,88.33
2023-01-22T05:41:45.115Z,88.21
2023-01-22T05:43:16.984Z,88.04
2023-01-22T05:44:48.899Z,88.15
2023-01-22T05:46:20.860Z,88.40
2023-01-22T05:49:25.643Z,88.41
2023-01-22T05:51:02.217Z,88.34
2023-01-22T05:52:34.074Z,88.55
2023-01-22T05:54:05.940Z,88.38
2023-01-22T05:55:37.973Z,88.39
2023-01-22T05:57:09.826Z,88.39
2023-01-22T05:58:41.711Z,88.27
2023-01-22T06:00:13.904Z,87.88
2023-01-22T06:01:45.833Z,87.75
2023-01-22T06:03:17.758Z,87.84
2023-01-22T06:04:49.841Z,87.95
2023-01-22T06:06:21.649Z,88.03
2023-01-22T06:07:53.436Z,88.36
2023-01-22T06:09:25.467Z,88.25
2023-01-22T06:11:01.464Z,88.06
2023-01-22T06:12:33.432Z,87.80
2023-01-22T06:14:05.468Z,87.85
2023-01-22T06:15:37.393Z,88.10
2023-01-22T06:17:09.322Z,88.16
2023-01-22T06:18:42.221Z,88.27
2023-01-22T06:20:14.367Z,88.41
2023-01-22T06:21:46.514Z,88.45
2023-01-22T06:23:18.522Z,88.39
2023-01-22T06:24:51.019Z,88.24
2023-01-22T06:26:22.913Z,88.10
2023-01-22T06:27:54.806Z,88.21
2023-01-22T06:29:26.655Z,88.62
2023-01-22T06:31:02.772Z,88.74
2023-01-22T06:32:34.788Z,88.45
2023-01-22T06:34:06.840Z,88.70
2023-01-22T06:35:38.728Z,88.76
2023-01-22T06:37:10.778Z,88.65
2023-01-22T06:38:42.661Z,88.80
2023-01-22T06:40:14.532Z,88.90
2023-01-22T06:41:47.406Z,88.73
2023-01-22T06:43:19.452Z,88.71
2023-01-22T06:44:51.973Z,88.95
2023-01-22T06:46:23.883Z,89.37
2023-01-22T06:49:32.490Z,89.74
2023-01-22T06:51:04.602Z,89.79
2023-01-22T06:52:36.565Z,89.75
2023-01-22T06:54:08.533Z,89.81
2023-01-22T06:55:40.487Z,89.98
2023-01-22T06:57:12.561Z,90.07
2023-01-22T06:58:44.474Z,90.18
2023-01-22T07:00:16.910Z,90.35
2023-01-22T07:01:48.934Z,90.46
2023-01-22T07:03:20.956Z,90.57
2023-01-22T07:04:52.757Z,90.58
2023-01-22T07:06:24.584Z,90.55
2023-01-22T07:07:56.538Z,90.41
2023-01-22T07:09:28.433Z,90.54
2023-01-22T07:11:00.336Z,90.88
2023-01-22T07:12:32.146Z,90.99
2023-01-22T07:14:04.042Z,90.89
2023-01-22T07:15:35.964Z,90.99
2023-01-22T07:18:44.765Z,90.92
2023-01-22T07:20:17.189Z,91.10
2023-01-22T07:21:49.207Z,91.05
2023-01-22T07:23:21.159Z,90.88
2023-01-22T07:24:52.961Z,90.89
2023-01-22T07:26:24.829Z,91.11
2023-01-22T07:28:00.520Z,91.06
2023-01-22T07:29:32.312Z,91.17
2023-01-22T07:31:04.315Z,91.09
2023-01-22T07:32:36.490Z,90.96
2023-01-22T07:34:08.457Z,91.04
2023-01-22T07:35:40.476Z,90.96
2023-01-22T07:37:12.444Z,91.00
2023-01-22T07:38:44.332Z,90.57
2023-01-22T07:40:16.629Z,90.71
2023-01-22T07:41:48.594Z,90.52
2023-01-22T07:43:20.407Z,90.56
2023-01-22T07:44:52.294Z,90.60
2023-01-22T07:46:24.378Z,90.51
2023-01-22T07:47:57.263Z,90.72
2023-01-22T07:49:29.187Z,90.65
2023-01-22T07:51:04.923Z,90.66
2023-01-22T07:52:36.841Z,90.63
2023-01-22T07:54:08.717Z,90.82
2023-01-22T07:55:40.865Z,90.75
2023-01-22T07:57:15.769Z,90.56
2023-01-22T07:58:47.602Z,90.68
2023-01-22T08:00:19.852Z,90.83
2023-01-22T08:01:52.093Z,90.85
2023-01-22T08:04:57.626Z,90.94
2023-01-22T08:06:29.507Z,91.08
2023-01-22T08:08:01.435Z,90.96
2023-01-22T08:09:33.433Z,90.75
2023-01-22T08:11:05.480Z,90.74
2023-01-22T08:12:39.007Z,90.85
2023-01-22T08:14:10.946Z,90.94
2023-01-22T08:15:43.111Z,90.90
2023-01-22T08:17:14.999Z,90.75
2023-01-22T08:18:46.889Z,90.63
2023-01-22T08:20:19.483Z,90.88
2023-01-22T08:21:51.444Z,90.90
2023-01-22T08:23:23.341Z,91.04
2023-01-22T08:24:55.327Z,91.11
2023-01-22T08:26:27.205Z,91.25
2023-01-22T08:28:02.012Z,91.15
2023-01-22T08:29:33.883Z,91.17
2023-01-22T08:31:09.372Z,91.28
2023-01-22T08:34:16.138Z,91.53
2023-01-22T08:35:48.266Z,91.67
2023-01-22T08:37:21.237Z,91.77
2023-01-22T08:38:54.093Z,91.73
2023-01-22T08:40:25.943Z,91.81
2023-01-22T08:41:57.997Z,91.50
2023-01-22T08:43:30.384Z,91.36
2023-01-22T08:45:02.251Z,91.15
2023-01-22T08:46:36.263Z,90.83
2023-01-22T08:48:11.043Z,90.65
2023-01-22T08:49:43.081Z,90.88
2023-01-22T08:51:15.131Z,90.67
2023-01-22T08:52:47.115Z,90.67
2023-01-22T08:54:18.921Z,90.37
2023-01-22T08:55:50.828Z,90.25
2023-01-22T08:57:22.650Z,90.32
2023-01-22T08:58:56.443Z,90.21
2023-01-22T09:00:28.572Z,90.12
2023-01-22T09:02:00.595Z,90.35
2023-01-22T09:03:35.162Z,90.14
2023-01-22T09:05:07.324Z,89.96
2023-01-22T09:08:13.091Z,89.75
2023-01-22T09:09:45.187Z,89.59
2023-01-22T09:11:17.084Z,89.35
2023-01-22T09:12:48.930Z,88.95
2023-01-22T09:14:21.062Z,88.69
2023-01-22T09:15:58.644Z,88.47
2023-01-22T09:17:30.501Z,89.13
2023-01-22T09:19:02.470Z,88.86
2023-01-22T09:20:34.306Z,88.90
2023-01-22T09:22:07.941Z,88.95
2023-01-22T09:23:39.809Z,88.80
2023-01-22T09:25:11.684Z,88.45
2023-01-22T09:26:43.684Z,88.20
2023-01-22T09:28:15.514Z,87.96
2023-01-22T09:29:47.348Z,87.78
2023-01-22T09:31:20.373Z,87.63
2023-01-22T09:32:52.638Z,87.55
2023-01-22T09:34:24.580Z,87.18
2023-01-22T09:37:40.131Z,87.14
2023-01-22T09:39:12.031Z,87.05
2023-01-22T09:40:45.337Z,87.47
2023-01-22T09:42:22.233Z,87.23
2023-01-22T09:43:58.489Z,87.13
2023-01-22T09:45:30.435Z,87.18
2023-01-22T09:47:06.231Z,87.21
2023-01-22T09:48:42.156Z,87.35
2023-01-22T09:50:22.970Z,86.77
2023-01-22T09:52:01.922Z,86.72
2023-01-22T09:53:34.506Z,86.16
2023-01-22T09:55:10.046Z,86.10
2023-01-22T09:56:44.185Z,85.65
2023-01-22T09:58:22.928Z,85.43
2023-01-22T09:59:56.883Z,85.01
2023-01-22T10:01:30.033Z,85.05
2023-01-22T10:03:02.402Z,85.30
2023-01-22T10:04:34.245Z,85.11
2023-01-22T10:06:18.600Z,85.09
2023-01-22T10:07:54.994Z,85.37
2023-01-22T10:09:27.787Z,85.06
2023-01-22T10:11:01.338Z,85.71
2023-01-22T10:12:33.164Z,85.40
2023-01-22T10:14:06.695Z,85.65
2023-01-22T10:15:38.707Z,85.51
2023-01-22T10:17:16.494Z,85.49
2023-01-22T10:18:50.157Z,85.51
2023-01-22T10:20:22.059Z,85.77
2023-01-22T10:21:55.881Z,85.63
2023-01-22T10:23:27.819Z,85.89
2023-01-22T10:24:59.779Z,86.33
2023-01-22T10:26:38.643Z,86.35
2023-01-22T10:28:10.586Z,86.37
2023-01-22T10:29:42.839Z,86.77
2023-01-22T10:31:20.114Z,86.83
2023-01-22T10:33:00.327Z,86.78
2023-01-22T10:34:34.569Z,86.98
2023-01-22T10:36:07.829Z,88.03
2023-01-22T10:37:46.742Z,88.42
2023-01-22T10:39:18.913Z,88.34
2023-01-22T10:41:00.769Z,88.24
2023-01-22T10:42:32.698Z,87.78
2023-01-22T10:44:13.738Z,87.83
2023-01-22T10:45:52.145Z,87.48
2023-01-22T10:47:27.745Z,87.91
2023-01-22T10:49:03.890Z,86.73
2023-01-22T10:50:35.731Z,87.28
2023-01-22T10:52:08.073Z,86.01
2023-01-22T10:53:44.515Z,87.05
2023-01-22T10:55:36.639Z,87.26
2023-01-22T10:57:11.194Z,87.76
2023-01-22T10:58:46.442Z,86.41
2023-01-22T11:00:18.994Z,86.86
2023-01-22T11:01:56.446Z,87.06
2023-01-22T11:03:32.645Z,86.73
2023-01-22T11:05:12.960Z,86.92
2023-01-22T11:06:46.299Z,86.56
2023-01-22T11:08:19.592Z,86.71
2023-01-22T11:09:51.481Z,86.29
2023-01-22T11:11:28.306Z,86.26
2023-01-22T11:13:27.901Z,87.69
2023-01-22T11:15:04.723Z,86.94
2023-01-22T11:16:39.552Z,86.47
2023-01-22T11:18:11.738Z,87.45
2023-01-22T11:19:48.488Z,87.49
2023-01-22T11:21:21.371Z,87.11
2023-01-22T11:23:16.114Z,87.48
2023-01-22T11:24:48.795Z,87.00
2023-01-22T11:26:30.569Z,87.62
2023-01-22T11:28:04.816Z,86.84
2023-01-22T11:29:47.192Z,85.91
2023-01-22T11:31:19.023Z,87.12
2023-01-22T11:32:57.640Z,86.67
2023-01-22T11:34:35.671Z,86.43
2023-01-22T11:36:11.576Z,87.12
2023-01-22T11:37:46.649Z,87.74
2023-01-22T11:39:33.798Z,88.50
2023-01-22T11:41:14.984Z,88.64
2023-01-22T11:42:49.826Z,86.62
2023-01-22T11:47:58.314Z,86.61
2023-01-22T11:49:39.373Z,87.09
2023-01-22T11:51:26.385Z,86.77
2023-01-22T11:53:20.832Z,86.13
2023-01-22T11:54:59.965Z,85.50
2023-01-22T11:56:37.665Z,86.66
2023-01-22T11:58:22.517Z,87.18
2023-01-22T12:00:00.688Z,87.39
2023-01-22T12:01:38.930Z,87.07
2023-01-22T12:03:10.924Z,86.60
2023-01-22T12:04:51.790Z,86.70
2023-01-22T12:06:43.933Z,86.99
2023-01-22T12:08:34.669Z,87.95
2023-01-22T12:10:15.509Z,87.56
2023-01-22T12:11:53.635Z,87.55
2023-01-22T12:13:27.165Z,87.79
2023-01-22T12:15:08.134Z,86.34
2023-01-22T12:16:43.118Z,87.02
2023-01-22T12:18:33.503Z,86.60
2023-01-22T12:21:55.507Z,87.84
2023-01-22T12:23:46.172Z,88.00
2023-01-22T12:25:20.880Z,87.78
2023-01-22T12:26:55.445Z,88.29
2023-01-22T12:28:28.785Z,88.17
2023-01-22T12:30:03.317Z,88.85
2023-01-22T12:31:36.778Z,88.85
2023-01-22T12:33:09.766Z,89.10
2023-01-22T12:34:55.722Z,89.02
2023-01-22T12:36:27.608Z,88.77
2023-01-22T12:38:12.938Z,88.59
2023-01-22T12:39:47.539Z,88.80
2023-01-22T12:41:19.479Z,89.03
2023-01-22T12:42:54.124Z,89.04
2023-01-22T12:44:31.673Z,89.35
2023-01-22T12:46:05.834Z,90.29
2023-01-22T12:47:40.537Z,90.69
2023-01-22T12:50:50.565Z,90.68
2023-01-22T12:52:38.522Z,90.50
2023-01-22T12:54:23.260Z,90.34
2023-01-22T12:55:58.818Z,90.48
2023-01-22T12:57:38.627Z,90.59
2023-01-22T12:59:30.406Z,90.77
2023-01-22T13:01:04.898Z,91.12
2023-01-22T13:02:39.039Z,91.16
2023-01-22T13:04:11.823Z,90.99
2023-01-22T13:05:47.376Z,91.41
2023-01-22T13:07:38.250Z,91.52
2023-01-22T13:09:24.147Z,91.58
2023-01-22T13:10:58.201Z,91.25
2023-01-22T13:12:37.586Z,91.20
2023-01-22T13:14:23.573Z,91.55
2023-01-22T13:15:56.688Z,91.51
2023-01-22T13:17:30.799Z,91.53
2023-01-22T13:19:10.119Z,91.31
2023-01-22T13:20:55.657Z,91.19
2023-01-22T13:22:27.576Z,91.15
2023-01-22T13:24:02.494Z,91.26
2023-01-22T13:25:34.567Z,91.42
2023-01-22T13:27:06.507Z,91.72
2023-01-22T13:28:39.176Z,91.98
2023-01-22T13:30:15.893Z,91.69
2023-01-22T13:32:06.977Z,91.44
2023-01-22T13:33:39.065Z,91.66
2023-01-22T13:35:12.491Z,91.06
2023-01-22T13:36:45.458Z,90.81
2023-01-22T13:38:18.298Z,91.11
2023-01-22T13:39:50.175Z,91.01
2023-01-22T13:41:38.268Z,91.03
2023-01-22T13:43:12.487Z,91.17
2023-01-22T13:44:48.247Z,91.29
2023-01-22T13:46:20.240Z,91.46
2023-01-22T14:28:56.000Z,90.68
2023-01-22T14:30:28.147Z,90.71
2023-01-22T14:32:02.939Z,90.68
2023-01-22T14:33:35.280Z,90.85
2023-01-22T14:35:07.307Z,90.68
2023-01-22T14:36:39.144Z,90.83
2023-01-22T14:38:10.993Z,90.46
2023-01-22T14:39:42.905Z,90.52
2023-01-22T14:41:14.810Z,90.54
2023-01-22T14:42:47.283Z,90.51
2023-01-22T14:44:19.366Z,90.51
2023-01-22T14:45:52.051Z,90.38
2023-01-22T14:47:24.072Z,90.58
2023-01-22T14:48:55.976Z,90.52
2023-01-22T14:50:27.958Z,90.32
2023-01-22T14:51:59.855Z,90.50
2023-01-22T14:53:31.810Z,90.45
2023-01-22T14:55:04.144Z,90.20
2023-01-22T14:56:36.004Z,90.33
2023-01-22T14:58:07.894Z,90.16
2023-01-22T14:59:39.833Z,90.20
2023-01-22T15:01:15.903Z,90.12
2023-01-22T15:02:48.179Z,89.83
2023-01-22T15:04:22.751Z,89.98
2023-01-22T15:05:54.634Z,89.79
2023-01-22T15:07:26.562Z,89.98
2023-01-22T15:08:58.499Z,90.05
2023-01-22T15:10:30.419Z,90.38
2023-01-22T15:12:02.426Z,90.26
2023-01-22T15:13:34.560Z,90.44
2023-01-22T15:15:09.320Z,90.49
2023-01-22T15:16:41.452Z,90.38
2023-01-22T15:18:13.587Z,90.17
2023-01-22T15:19:45.447Z,90.30
2023-01-22T15:21:20.246Z,90.21
2023-01-22T15:22:52.428Z,90.22
2023-01-22T15:24:26.589Z,90.46
2023-01-22T15:26:02.249Z,90.37
2023-01-22T15:27:34.182Z,90.43
2023-01-22T15:29:07.777Z,90.35
2023-01-22T15:30:39.617Z,90.23
2023-01-22T15:32:11.874Z,90.73
2023-01-22T15:33:43.716Z,91.03
2023-01-22T15:35:15.729Z,91.00
2023-01-22T15:36:47.706Z,91.15
2023-01-22T15:38:19.638Z,91.13
2023-01-22T15:39:51.820Z,90.97
2023-01-22T15:41:27.452Z,91.00
2023-01-22T15:42:59.579Z,91.14
2023-01-22T15:44:31.491Z,90.94
2023-01-22T15:46:03.390Z,90.85
2023-01-22T15:47:35.319Z,90.90
2023-01-22T15:49:08.579Z,90.92
2023-01-22T15:50:40.456Z,90.92
2023-01-22T15:52:12.360Z,91.10
2023-01-22T15:53:51.117Z,90.95
2023-01-22T15:55:22.918Z,90.95
2023-01-22T15:56:54.885Z,91.06
2023-01-22T15:58:26.717Z,91.07
2023-01-22T15:59:58.543Z,91.24
2023-01-22T16:03:10.587Z,91.47
2023-01-22T16:04:42.388Z,91.50
2023-01-22T16:06:16.676Z,91.58
2023-01-22T16:07:52.167Z,91.34
2023-01-22T16:09:24.520Z,91.51
2023-01-22T16:10:56.463Z,91.51
2023-01-22T16:12:28.467Z,91.64
2023-01-22T16:14:00.641Z,91.58
2023-01-22T16:15:33.557Z,91.49
2023-01-22T16:17:05.381Z,91.71
2023-01-22T16:18:37.203Z,91.63
2023-01-22T16:20:10.181Z,91.68
2023-01-22T16:21:42.193Z,91.94
2023-01-22T16:23:14.119Z,91.88
2023-01-22T16:24:45.976Z,91.94
2023-01-22T16:26:18.459Z,92.03
2023-01-22T16:27:50.345Z,92.34
2023-01-22T16:29:22.211Z,92.45
2023-01-22T16:32:27.900Z,92.55
2023-01-22T16:34:00.867Z,92.30
2023-01-22T16:35:32.840Z,92.09
2023-01-22T16:37:04.717Z,92.19
2023-01-22T16:38:37.057Z,92.14
2023-01-22T16:40:09.473Z,91.97
2023-01-22T16:41:41.472Z,92.21
2023-01-22T16:43:13.353Z,92.23
2023-01-22T16:44:45.409Z,92.06
2023-01-22T16:46:17.859Z,92.22
2023-01-22T16:47:49.888Z,92.02
2023-01-22T16:49:23.154Z,91.90
2023-01-22T16:50:55.370Z,91.81
2023-01-22T16:52:27.335Z,91.76
2023-01-22T16:53:59.192Z,91.70
2023-01-22T16:55:31.046Z,91.97
2023-01-22T16:57:04.123Z,91.95
2023-01-22T16:58:37.254Z,91.96
2023-01-22T17:00:09.623Z,91.76
2023-01-22T17:01:41.822Z,91.88
2023-01-22T17:03:13.899Z,91.55
2023-01-22T17:04:45.783Z,91.67
2023-01-22T17:06:28.289Z,91.42
2023-01-22T17:08:00.533Z,91.26
2023-01-22T17:09:33.236Z,91.42
2023-01-22T17:11:08.233Z,91.39
2023-01-22T17:12:40.219Z,91.17
2023-01-22T17:14:12.105Z,91.32
2023-01-22T17:15:47.661Z,91.42
2023-01-22T17:17:19.615Z,91.25
2023-01-22T17:18:51.524Z,91.19
2023-01-22T17:20:23.578Z,91.15
2023-01-22T17:21:57.001Z,91.13
2023-01-22T17:23:28.846Z,91.13
2023-01-22T17:25:00.809Z,91.16
2023-01-22T17:26:34.007Z,91.32
2023-01-22T17:28:09.379Z,91.17
2023-01-22T17:29:42.358Z,91.37
2023-01-22T17:31:19.090Z,91.30
2023-01-22T17:32:51.104Z,91.39
2023-01-22T17:34:23.648Z,91.44
2023-01-22T17:35:59.019Z,91.77
2023-01-22T17:37:31.041Z,91.64
2023-01-22T17:39:03.916Z,91.95
2023-01-22T17:40:38.569Z,91.88
2023-01-22T17:42:10.443Z,92.01
2023-01-22T17:43:42.536Z,92.03
2023-01-22T17:45:14.569Z,92.10
2023-01-22T17:48:20.716Z,92.28
2023-01-22T17:49:52.685Z,92.33
2023-01-22T17:51:25.908Z,92.43
2023-01-22T17:52:57.815Z,92.50
2023-01-22T17:54:29.742Z,92.67
2023-01-22T17:56:08.320Z,92.90
2023-01-22T17:57:41.463Z,92.75
2023-01-22T17:59:13.928Z,92.96
2023-01-22T18:00:45.943Z,93.06
2023-01-22T18:02:17.879Z,93.08
2023-01-22T18:03:50.057Z,93.29
2023-01-22T18:05:23.195Z,93.40
2023-01-22T18:06:55.272Z,93.23
2023-01-22T18:08:28.385Z,93.46
2023-01-22T18:10:00.515Z,93.58
2023-01-22T18:11:33.303Z,93.72
2023-01-22T18:13:05.167Z,93.76
2023-01-22T18:14:37.204Z,93.76
2023-01-22T18:16:10.393Z,93.80
2023-01-22T18:17:42.336Z,93.68
2023-01-22T18:19:14.440Z,94.01
2023-01-22T18:20:46.582Z,93.96
2023-01-22T18:22:18.480Z,94.10
2023-01-22T18:23:50.433Z,94.28
2023-01-22T18:25:22.426Z,94.21
2023-01-22T18:26:55.190Z,94.12
2023-01-22T18:28:27.292Z,94.50
2023-01-22T18:29:59.164Z,94.46
2023-01-22T18:31:31.164Z,94.48
2023-01-22T18:33:03.119Z,94.41
2023-01-22T18:34:34.963Z,94.76
2023-01-22T18:36:09.023Z,94.66
2023-01-22T18:37:40.934Z,94.77
2023-01-22T18:39:16.868Z,94.53
2023-01-22T18:40:49.026Z,94.56
2023-01-22T18:42:20.911Z,94.70
2023-01-22T18:43:55.042Z,94.84
2023-01-22T18:45:26.923Z,94.79
2023-01-22T18:47:00.974Z,94.74
2023-01-22T18:48:32.841Z,94.92
2023-01-22T18:50:04.995Z,94.90
2023-01-22T18:51:36.842Z,95.13
2023-01-22T18:53:09.886Z,94.99
2023-01-22T18:54:41.881Z,95.09
2023-01-22T18:56:13.827Z,95.35
2023-01-22T18:57:53.550Z,95.21
2023-01-22T18:59:25.735Z,95.07
2023-01-22T19:00:59.195Z,95.17
2023-01-22T19:02:31.107Z,95.22
2023-01-22T19:04:04.334Z,95.13
2023-01-22T19:05:36.242Z,95.15
2023-01-22T19:07:08.098Z,95.17
2023-01-22T19:08:41.096Z,95.03
2023-01-22T19:10:12.999Z,95.09
2023-01-22T19:11:47.390Z,95.35
2023-01-22T19:13:20.951Z,95.25
2023-01-22T19:14:53.917Z,95.49
2023-01-22T19:16:25.859Z,95.40
2023-01-22T19:17:57.796Z,95.38
2023-01-22T19:19:29.635Z,95.63
2023-01-22T19:21:05.262Z,95.49
2023-01-22T19:22:37.359Z,95.66
2023-01-22T19:24:09.493Z,95.71
2023-01-22T19:25:41.344Z,95.54
2023-01-22T19:27:13.345Z,95.65
2023-01-22T19:28:45.282Z,95.77
2023-01-22T19:30:18.058Z,95.95
2023-01-22T19:31:54.131Z,95.68
2023-01-22T19:33:28.119Z,95.73
2023-01-22T19:35:00.009Z,95.63
2023-01-22T19:36:32.456Z,95.60
2023-01-22T19:38:05.508Z,95.67
2023-01-22T19:39:37.454Z,95.69
2023-01-22T19:41:09.488Z,95.53
2023-01-22T19:42:43.490Z,95.61
2023-01-22T19:44:15.401Z,95.48
2023-01-22T19:45:47.254Z,95.35
2023-01-22T19:47:19.710Z,95.24
2023-01-22T19:48:51.772Z,95.41
2023-01-22T19:50:25.511Z,95.42
2023-01-22T19:51:57.649Z,95.39
2023-01-22T19:53:32.348Z,95.42
2023-01-22T19:55:04.242Z,95.54
2023-01-22T19:56:36.536Z,95.43
2023-01-22T19:58:08.451Z,95.52
2023-01-22T19:59:40.364Z,95.27
2023-01-22T20:01:12.495Z,95.23
2023-01-22T20:02:44.437Z,95.39
2023-01-22T20:04:21.719Z,95.45
2023-01-22T20:05:53.536Z,95.44
2023-01-22T20:07:25.640Z,95.23
2023-01-22T20:08:57.548Z,95.27
2023-01-22T20:10:29.792Z,95.39
2023-01-22T20:12:01.794Z,95.32
2023-01-22T20:13:34.004Z,95.41
2023-01-22T20:16:41.008Z,95.65
2023-01-22T20:18:12.896Z,95.73
2023-01-22T20:19:44.811Z,95.56
2023-01-22T20:21:17.320Z,95.45
2023-01-22T20:22:49.670Z,95.47
2023-01-22T20:24:21.523Z,95.54
2023-01-22T20:25:53.439Z,95.50
2023-01-22T20:27:25.287Z,95.59
2023-01-22T20:28:57.243Z,95.71
2023-01-22T20:30:29.175Z,95.90
2023-01-22T20:32:01.244Z,95.94
2023-01-22T20:33:33.303Z,95.65
2023-01-22T20:35:06.131Z,95.69
2023-01-22T20:36:38.250Z,95.58
2023-01-22T20:38:10.141Z,95.78
2023-01-22T20:39:42.032Z,95.61
2023-01-22T20:41:14.176Z,95.66
2023-01-22T20:42:46.075Z,95.64
2023-01-22T20:44:18.354Z,95.69
2023-01-22T20:46:00.916Z,95.78
2023-01-22T20:47:36.216Z,95.70
2023-01-22T20:49:11.180Z,95.64
2023-01-22T20:50:43.116Z,95.64
2023-01-22T20:52:16.124Z,95.60
2023-01-22T20:53:48.407Z,95.53
2023-01-22T20:55:21.314Z,95.33
2023-01-22T20:56:53.325Z,95.28
2023-01-22T20:58:25.233Z,95.44
2023-01-22T20:59:57.117Z,95.20
2023-01-22T21:01:29.174Z,95.37
2023-01-22T21:03:01.007Z,95.38
2023-01-22T21:04:32.898Z,95.33
2023-01-22T21:06:05.666Z,95.53
2023-01-22T21:07:37.545Z,95.20
2023-01-22T21:09:09.963Z,95.19
2023-01-22T21:10:41.835Z,95.44
2023-01-22T21:12:14.296Z,95.41